sensor_id;sensor_type;location;lat;lon;timestamp;P1;durP1;ratioP1;P2;durP2;ratioP2
60314;SDS011;46159;42.550;21.904;2023-09-07T00:01:39;14.75;;;8.30;;
60314;SDS011;46159;42.550;21.904;2023-09-07T00:04:05;11.93;;;7.13;;
60314;SDS011;46159;42.550;21.904;2023-09-07T00:06:32;13.05;;;6.68;;
60314;SDS011;46159;42.550;21.904;2023-09-07T00:08:59;15.95;;;8.27;;
60314;SDS011;46159;42.550;21.904;2023-09-07T00:11:25;11.25;;;6.80;;
60314;SDS011;46159;42.550;21.904;2023-09-07T00:13:51;10.20;;;6.93;;
60314;SDS011;46159;42.550;21.904;2023-09-07T00:16:17;10.05;;;5.90;;
60314;SDS011;46159;42.550;21.904;2023-09-07T00:18:43;9.63;;;6.43;;
60314;SDS011;46159;42.550;21.904;2023-09-07T00:21:09;11.73;;;6.35;;
60314;SDS011;46159;42.550;21.904;2023-09-07T00:23:35;16.33;;;6.78;;
60314;SDS011;46159;42.550;21.904;2023-09-07T00:26:02;11.82;;;7.40;;
60314;SDS011;46159;42.550;21.904;2023-09-07T00:28:28;11.93;;;6.20;;
60314;SDS011;46159;42.550;21.904;2023-09-07T00:30:54;11.98;;;6.72;;
60314;SDS011;46159;42.550;21.904;2023-09-07T00:33:20;9.88;;;6.38;;
60314;SDS011;46159;42.550;21.904;2023-09-07T00:35:46;9.90;;;6.70;;
60314;SDS011;46159;42.550;21.904;2023-09-07T00:38:12;12.82;;;6.15;;
60314;SDS011;46159;42.550;21.904;2023-09-07T00:40:41;10.55;;;7.25;;
60314;SDS011;46159;42.550;21.904;2023-09-07T00:43:08;10.48;;;7.38;;
60314;SDS011;46159;42.550;21.904;2023-09-07T00:45:34;12.95;;;7.28;;
60314;SDS011;46159;42.550;21.904;2023-09-07T00:48:00;14.70;;;8.93;;
60314;SDS011;46159;42.550;21.904;2023-09-07T00:50:27;18.20;;;13.13;;
60314;SDS011;46159;42.550;21.904;2023-09-07T00:52:53;20.35;;;15.48;;
60314;SDS011;46159;42.550;21.904;2023-09-07T00:55:20;17.95;;;13.82;;
60314;SDS011;46159;42.550;21.904;2023-09-07T00:57:47;16.63;;;12.93;;
60314;SDS011;46159;42.550;21.904;2023-09-07T01:00:14;16.38;;;11.38;;
60314;SDS011;46159;42.550;21.904;2023-09-07T01:02:40;21.95;;;15.50;;
60314;SDS011;46159;42.550;21.904;2023-09-07T01:05:10;16.58;;;11.98;;
60314;SDS011;46159;42.550;21.904;2023-09-07T01:10:08;15.63;;;11.70;;
60314;SDS011;46159;42.550;21.904;2023-09-07T01:12:34;12.98;;;10.77;;
60314;SDS011;46159;42.550;21.904;2023-09-07T01:15:01;14.55;;;10.88;;
60314;SDS011;46159;42.550;21.904;2023-09-07T01:17:27;19.83;;;11.80;;
60314;SDS011;46159;42.550;21.904;2023-09-07T01:19:53;16.77;;;10.35;;
60314;SDS011;46159;42.550;21.904;2023-09-07T01:22:20;17.17;;;9.93;;
60314;SDS011;46159;42.550;21.904;2023-09-07T01:24:50;12.38;;;10.30;;
60314;SDS011;46159;42.550;21.904;2023-09-07T01:27:19;17.88;;;9.80;;
60314;SDS011;46159;42.550;21.904;2023-09-07T01:29:45;14.77;;;9.38;;
60314;SDS011;46159;42.550;21.904;2023-09-07T01:32:12;13.23;;;9.40;;
60314;SDS011;46159;42.550;21.904;2023-09-07T01:34:38;12.48;;;9.35;;
60314;SDS011;46159;42.550;21.904;2023-09-07T01:37:04;16.58;;;9.57;;
60314;SDS011;46159;42.550;21.904;2023-09-07T01:39:30;14.73;;;8.27;;
60314;SDS011;46159;42.550;21.904;2023-09-07T01:41:59;12.70;;;8.43;;
60314;SDS011;46159;42.550;21.904;2023-09-07T01:44:25;13.93;;;9.60;;
60314;SDS011;46159;42.550;21.904;2023-09-07T01:46:53;13.90;;;8.60;;
60314;SDS011;46159;42.550;21.904;2023-09-07T01:49:19;13.77;;;8.70;;
60314;SDS011;46159;42.550;21.904;2023-09-07T01:51:45;13.27;;;8.43;;
60314;SDS011;46159;42.550;21.904;2023-09-07T01:54:11;13.18;;;8.25;;
60314;SDS011;46159;42.550;21.904;2023-09-07T01:56:37;14.43;;;10.13;;
60314;SDS011;46159;42.550;21.904;2023-09-07T01:59:04;10.65;;;7.82;;
60314;SDS011;46159;42.550;21.904;2023-09-07T02:01:30;17.08;;;13.02;;
60314;SDS011;46159;42.550;21.904;2023-09-07T02:04:01;13.80;;;10.90;;
60314;SDS011;46159;42.550;21.904;2023-09-07T02:06:28;20.77;;;17.05;;
60314;SDS011;46159;42.550;21.904;2023-09-07T02:08:54;12.90;;;8.27;;
60314;SDS011;46159;42.550;21.904;2023-09-07T02:11:20;20.58;;;15.77;;
60314;SDS011;46159;42.550;21.904;2023-09-07T02:13:46;11.80;;;9.68;;
60314;SDS011;46159;42.550;21.904;2023-09-07T02:16:13;11.10;;;8.57;;
60314;SDS011;46159;42.550;21.904;2023-09-07T02:18:39;13.38;;;8.85;;
60314;SDS011;46159;42.550;21.904;2023-09-07T02:21:08;11.75;;;8.70;;
60314;SDS011;46159;42.550;21.904;2023-09-07T02:23:35;10.98;;;8.00;;
60314;SDS011;46159;42.550;21.904;2023-09-07T02:26:04;11.75;;;8.90;;
60314;SDS011;46159;42.550;21.904;2023-09-07T02:28:30;14.00;;;8.43;;
60314;SDS011;46159;42.550;21.904;2023-09-07T02:31:06;12.32;;;8.77;;
60314;SDS011;46159;42.550;21.904;2023-09-07T02:33:33;14.48;;;8.95;;
60314;SDS011;46159;42.550;21.904;2023-09-07T02:36:00;11.98;;;9.50;;
60314;SDS011;46159;42.550;21.904;2023-09-07T02:38:26;15.73;;;9.65;;
60314;SDS011;46159;42.550;21.904;2023-09-07T02:40:52;12.43;;;9.35;;
60314;SDS011;46159;42.550;21.904;2023-09-07T02:43:19;16.35;;;9.95;;
60314;SDS011;46159;42.550;21.904;2023-09-07T02:45:45;12.80;;;9.18;;
60314;SDS011;46159;42.550;21.904;2023-09-07T02:48:11;13.15;;;9.32;;
60314;SDS011;46159;42.550;21.904;2023-09-07T02:50:37;13.93;;;9.20;;
60314;SDS011;46159;42.550;21.904;2023-09-07T02:53:03;13.00;;;9.30;;
60314;SDS011;46159;42.550;21.904;2023-09-07T02:55:29;14.77;;;8.35;;
60314;SDS011;46159;42.550;21.904;2023-09-07T02:57:56;15.13;;;8.50;;
60314;SDS011;46159;42.550;21.904;2023-09-07T03:00:22;13.23;;;9.50;;
60314;SDS011;46159;42.550;21.904;2023-09-07T03:02:49;16.25;;;9.27;;
60314;SDS011;46159;42.550;21.904;2023-09-07T03:05:15;14.20;;;8.75;;
60314;SDS011;46159;42.550;21.904;2023-09-07T03:07:44;12.45;;;8.98;;
60314;SDS011;46159;42.550;21.904;2023-09-07T03:10:11;13.43;;;8.65;;
60314;SDS011;46159;42.550;21.904;2023-09-07T03:12:37;13.25;;;9.25;;
60314;SDS011;46159;42.550;21.904;2023-09-07T03:15:04;15.20;;;9.35;;
60314;SDS011;46159;42.550;21.904;2023-09-07T03:17:32;13.15;;;8.98;;
60314;SDS011;46159;42.550;21.904;2023-09-07T03:19:58;16.13;;;9.88;;
60314;SDS011;46159;42.550;21.904;2023-09-07T03:22:24;16.70;;;9.20;;
60314;SDS011;46159;42.550;21.904;2023-09-07T03:24:51;13.90;;;9.63;;
60314;SDS011;46159;42.550;21.904;2023-09-07T03:27:17;12.20;;;9.27;;
60314;SDS011;46159;42.550;21.904;2023-09-07T03:29:46;14.75;;;9.27;;
60314;SDS011;46159;42.550;21.904;2023-09-07T03:32:16;16.42;;;9.38;;
60314;SDS011;46159;42.550;21.904;2023-09-07T03:34:42;13.90;;;9.30;;
60314;SDS011;46159;42.550;21.904;2023-09-07T03:37:08;13.38;;;9.75;;
60314;SDS011;46159;42.550;21.904;2023-09-07T03:39:36;15.90;;;9.63;;
60314;SDS011;46159;42.550;21.904;2023-09-07T03:42:02;13.50;;;9.38;;
60314;SDS011;46159;42.550;21.904;2023-09-07T03:44:28;15.70;;;9.82;;
60314;SDS011;46159;42.550;21.904;2023-09-07T03:46:54;13.05;;;8.95;;
60314;SDS011;46159;42.550;21.904;2023-09-07T03:49:21;13.73;;;8.88;;
60314;SDS011;46159;42.550;21.904;2023-09-07T03:51:47;13.30;;;9.95;;
60314;SDS011;46159;42.550;21.904;2023-09-07T03:54:13;14.45;;;9.68;;
60314;SDS011;46159;42.550;21.904;2023-09-07T03:56:39;12.18;;;9.55;;
60314;SDS011;46159;42.550;21.904;2023-09-07T03:59:05;14.27;;;9.75;;
60314;SDS011;46159;42.550;21.904;2023-09-07T04:01:31;14.13;;;9.43;;
60314;SDS011;46159;42.550;21.904;2023-09-07T04:03:58;14.75;;;9.70;;
60314;SDS011;46159;42.550;21.904;2023-09-07T04:06:24;16.67;;;9.88;;
60314;SDS011;46159;42.550;21.904;2023-09-07T04:08:50;12.75;;;9.65;;
60314;SDS011;46159;42.550;21.904;2023-09-07T04:11:16;15.30;;;10.05;;
60314;SDS011;46159;42.550;21.904;2023-09-07T04:13:42;15.18;;;10.80;;
60314;SDS011;46159;42.550;21.904;2023-09-07T04:16:08;15.32;;;10.75;;
60314;SDS011;46159;42.550;21.904;2023-09-07T04:18:35;16.08;;;10.75;;
60314;SDS011;46159;42.550;21.904;2023-09-07T04:21:07;16.48;;;9.45;;
60314;SDS011;46159;42.550;21.904;2023-09-07T04:23:34;15.65;;;10.85;;
60314;SDS011;46159;42.550;21.904;2023-09-07T04:26:06;17.17;;;10.68;;
60314;SDS011;46159;42.550;21.904;2023-09-07T04:28:33;13.50;;;9.88;;
60314;SDS011;46159;42.550;21.904;2023-09-07T04:30:59;13.70;;;9.90;;
60314;SDS011;46159;42.550;21.904;2023-09-07T04:33:25;14.23;;;10.45;;
60314;SDS011;46159;42.550;21.904;2023-09-07T04:35:51;12.10;;;9.25;;
60314;SDS011;46159;42.550;21.904;2023-09-07T04:38:17;14.30;;;8.80;;
60314;SDS011;46159;42.550;21.904;2023-09-07T04:40:43;12.25;;;8.80;;
60314;SDS011;46159;42.550;21.904;2023-09-07T04:43:09;13.73;;;9.75;;
60314;SDS011;46159;42.550;21.904;2023-09-07T04:45:35;12.60;;;9.32;;
60314;SDS011;46159;42.550;21.904;2023-09-07T04:48:02;11.93;;;8.98;;
60314;SDS011;46159;42.550;21.904;2023-09-07T04:50:28;14.85;;;9.88;;
60314;SDS011;46159;42.550;21.904;2023-09-07T04:52:54;13.18;;;9.35;;
60314;SDS011;46159;42.550;21.904;2023-09-07T04:55:20;14.00;;;8.35;;
60314;SDS011;46159;42.550;21.904;2023-09-07T04:57:46;14.60;;;9.05;;
60314;SDS011;46159;42.550;21.904;2023-09-07T05:00:12;12.80;;;9.82;;
60314;SDS011;46159;42.550;21.904;2023-09-07T05:02:38;21.38;;;9.70;;
60314;SDS011;46159;42.550;21.904;2023-09-07T05:05:08;13.48;;;9.05;;
60314;SDS011;46159;42.550;21.904;2023-09-07T05:07:34;13.95;;;9.70;;
60314;SDS011;46159;42.550;21.904;2023-09-07T05:10:00;14.73;;;9.00;;
60314;SDS011;46159;42.550;21.904;2023-09-07T05:12:26;15.85;;;9.98;;
60314;SDS011;46159;42.550;21.904;2023-09-07T05:14:52;14.73;;;9.50;;
60314;SDS011;46159;42.550;21.904;2023-09-07T05:17:18;13.52;;;9.57;;
60314;SDS011;46159;42.550;21.904;2023-09-07T05:19:44;15.95;;;9.85;;
60314;SDS011;46159;42.550;21.904;2023-09-07T05:22:10;16.55;;;10.25;;
60314;SDS011;46159;42.550;21.904;2023-09-07T05:24:42;19.60;;;10.32;;
60314;SDS011;46159;42.550;21.904;2023-09-07T05:27:11;15.13;;;10.02;;
60314;SDS011;46159;42.550;21.904;2023-09-07T05:29:37;16.00;;;10.15;;
60314;SDS011;46159;42.550;21.904;2023-09-07T05:32:04;15.93;;;10.25;;
60314;SDS011;46159;42.550;21.904;2023-09-07T05:34:30;16.42;;;9.93;;
60314;SDS011;46159;42.550;21.904;2023-09-07T05:36:56;13.75;;;10.35;;
60314;SDS011;46159;42.550;21.904;2023-09-07T05:39:22;15.75;;;10.20;;
60314;SDS011;46159;42.550;21.904;2023-09-07T05:41:49;16.15;;;10.95;;
60314;SDS011;46159;42.550;21.904;2023-09-07T05:44:15;17.58;;;10.82;;
60314;SDS011;46159;42.550;21.904;2023-09-07T05:46:41;18.23;;;11.90;;
60314;SDS011;46159;42.550;21.904;2023-09-07T05:49:07;25.95;;;12.23;;
60314;SDS011;46159;42.550;21.904;2023-09-07T05:51:33;22.17;;;13.48;;
60314;SDS011;46159;42.550;21.904;2023-09-07T05:54:00;25.92;;;14.18;;
60314;SDS011;46159;42.550;21.904;2023-09-07T05:56:26;23.08;;;12.65;;
60314;SDS011;46159;42.550;21.904;2023-09-07T05:58:53;25.38;;;12.80;;
60314;SDS011;46159;42.550;21.904;2023-09-07T06:01:19;24.88;;;13.77;;
60314;SDS011;46159;42.550;21.904;2023-09-07T06:03:45;22.27;;;14.30;;
60314;SDS011;46159;42.550;21.904;2023-09-07T06:06:11;21.55;;;13.73;;
60314;SDS011;46159;42.550;21.904;2023-09-07T06:08:37;37.17;;;14.30;;
60314;SDS011;46159;42.550;21.904;2023-09-07T06:11:03;27.80;;;12.48;;
60314;SDS011;46159;42.550;21.904;2023-09-07T06:13:30;29.52;;;12.63;;
60314;SDS011;46159;42.550;21.904;2023-09-07T06:15:56;23.08;;;10.57;;
60314;SDS011;46159;42.550;21.904;2023-09-07T06:18:24;21.60;;;11.35;;
60314;SDS011;46159;42.550;21.904;2023-09-07T06:20:50;21.27;;;11.18;;
60314;SDS011;46159;42.550;21.904;2023-09-07T06:23:16;21.33;;;10.13;;
60314;SDS011;46159;42.550;21.904;2023-09-07T06:25:42;16.42;;;10.30;;
60314;SDS011;46159;42.550;21.904;2023-09-07T06:28:08;27.83;;;11.77;;
60314;SDS011;46159;42.550;21.904;2023-09-07T06:30:34;25.48;;;11.02;;
60314;SDS011;46159;42.550;21.904;2023-09-07T06:33:00;20.88;;;12.23;;
60314;SDS011;46159;42.550;21.904;2023-09-07T06:35:28;26.50;;;17.77;;
60314;SDS011;46159;42.550;21.904;2023-09-07T06:37:54;20.38;;;13.70;;
60314;SDS011;46159;42.550;21.904;2023-09-07T06:40:21;28.25;;;16.38;;
60314;SDS011;46159;42.550;21.904;2023-09-07T06:42:47;22.27;;;15.32;;
60314;SDS011;46159;42.550;21.904;2023-09-07T06:45:13;12.35;;;8.75;;
60314;SDS011;46159;42.550;21.904;2023-09-07T06:47:39;13.77;;;9.73;;
60314;SDS011;46159;42.550;21.904;2023-09-07T06:50:05;17.50;;;9.95;;
60314;SDS011;46159;42.550;21.904;2023-09-07T06:52:31;23.05;;;10.13;;
60314;SDS011;46159;42.550;21.904;2023-09-07T06:54:57;20.00;;;11.77;;
60314;SDS011;46159;42.550;21.904;2023-09-07T06:57:23;13.20;;;9.70;;
60314;SDS011;46159;42.550;21.904;2023-09-07T06:59:49;18.05;;;9.75;;
60314;SDS011;46159;42.550;21.904;2023-09-07T07:02:15;17.80;;;9.27;;
60314;SDS011;46159;42.550;21.904;2023-09-07T07:04:42;16.30;;;10.32;;
60314;SDS011;46159;42.550;21.904;2023-09-07T07:07:09;14.60;;;9.65;;
60314;SDS011;46159;42.550;21.904;2023-09-07T07:09:35;17.25;;;9.70;;
60314;SDS011;46159;42.550;21.904;2023-09-07T07:12:01;17.83;;;8.95;;
60314;SDS011;46159;42.550;21.904;2023-09-07T07:14:28;15.07;;;11.10;;
60314;SDS011;46159;42.550;21.904;2023-09-07T07:16:54;16.90;;;10.48;;
60314;SDS011;46159;42.550;21.904;2023-09-07T07:19:20;17.73;;;11.40;;
60314;SDS011;46159;42.550;21.904;2023-09-07T07:21:47;15.77;;;10.77;;
60314;SDS011;46159;42.550;21.904;2023-09-07T07:24:14;18.17;;;12.15;;
60314;SDS011;46159;42.550;21.904;2023-09-07T07:26:40;17.48;;;12.27;;
60314;SDS011;46159;42.550;21.904;2023-09-07T07:29:06;19.40;;;12.70;;
60314;SDS011;46159;42.550;21.904;2023-09-07T07:31:32;17.30;;;13.70;;
60314;SDS011;46159;42.550;21.904;2023-09-07T07:33:58;21.88;;;15.05;;
60314;SDS011;46159;42.550;21.904;2023-09-07T07:36:24;18.98;;;13.10;;
60314;SDS011;46159;42.550;21.904;2023-09-07T07:38:50;18.77;;;13.32;;
60314;SDS011;46159;42.550;21.904;2023-09-07T07:41:16;21.17;;;16.10;;
60314;SDS011;46159;42.550;21.904;2023-09-07T07:43:43;21.70;;;14.93;;
60314;SDS011;46159;42.550;21.904;2023-09-07T07:46:09;21.35;;;15.05;;
60314;SDS011;46159;42.550;21.904;2023-09-07T07:48:35;17.38;;;13.63;;
60314;SDS011;46159;42.550;21.904;2023-09-07T07:51:04;17.48;;;14.20;;
60314;SDS011;46159;42.550;21.904;2023-09-07T07:53:30;20.83;;;14.07;;
60314;SDS011;46159;42.550;21.904;2023-09-07T07:55:57;17.55;;;13.60;;
60314;SDS011;46159;42.550;21.904;2023-09-07T07:58:23;16.88;;;13.70;;
60314;SDS011;46159;42.550;21.904;2023-09-07T08:00:49;18.15;;;13.27;;
60314;SDS011;46159;42.550;21.904;2023-09-07T08:03:15;18.45;;;14.32;;
60314;SDS011;46159;42.550;21.904;2023-09-07T08:05:43;16.25;;;12.93;;
60314;SDS011;46159;42.550;21.904;2023-09-07T08:08:09;16.42;;;12.82;;
60314;SDS011;46159;42.550;21.904;2023-09-07T08:10:35;17.08;;;11.48;;
60314;SDS011;46159;42.550;21.904;2023-09-07T08:13:02;19.05;;;14.00;;
60314;SDS011;46159;42.550;21.904;2023-09-07T08:15:28;17.20;;;12.70;;
60314;SDS011;46159;42.550;21.904;2023-09-07T08:17:54;15.25;;;12.43;;
60314;SDS011;46159;42.550;21.904;2023-09-07T08:20:21;18.25;;;11.00;;
60314;SDS011;46159;42.550;21.904;2023-09-07T08:22:48;18.23;;;13.07;;
60314;SDS011;46159;42.550;21.904;2023-09-07T08:25:14;13.63;;;9.63;;
60314;SDS011;46159;42.550;21.904;2023-09-07T08:27:43;19.27;;;10.23;;
60314;SDS011;46159;42.550;21.904;2023-09-07T08:30:14;13.35;;;9.23;;
60314;SDS011;46159;42.550;21.904;2023-09-07T08:32:41;14.07;;;8.65;;
60314;SDS011;46159;42.550;21.904;2023-09-07T08:35:08;12.93;;;8.68;;
60314;SDS011;46159;42.550;21.904;2023-09-07T08:37:37;11.73;;;8.30;;
60314;SDS011;46159;42.550;21.904;2023-09-07T08:40:03;11.60;;;8.30;;
60314;SDS011;46159;42.550;21.904;2023-09-07T08:42:32;12.65;;;8.25;;
60314;SDS011;46159;42.550;21.904;2023-09-07T08:44:58;13.55;;;8.50;;
60314;SDS011;46159;42.550;21.904;2023-09-07T08:47:26;13.73;;;7.90;;
60314;SDS011;46159;42.550;21.904;2023-09-07T08:49:55;11.70;;;8.55;;
60314;SDS011;46159;42.550;21.904;2023-09-07T08:52:22;12.00;;;6.28;;
60314;SDS011;46159;42.550;21.904;2023-09-07T08:54:48;11.25;;;6.65;;
60314;SDS011;46159;42.550;21.904;2023-09-07T08:57:14;12.50;;;6.70;;
60314;SDS011;46159;42.550;21.904;2023-09-07T08:59:40;13.43;;;6.97;;
60314;SDS011;46159;42.550;21.904;2023-09-07T09:02:08;11.80;;;7.00;;
60314;SDS011;46159;42.550;21.904;2023-09-07T09:04:36;11.70;;;7.72;;
60314;SDS011;46159;42.550;21.904;2023-09-07T09:07:04;12.85;;;7.70;;
60314;SDS011;46159;42.550;21.904;2023-09-07T09:09:30;16.65;;;7.65;;
60314;SDS011;46159;42.550;21.904;2023-09-07T09:12:09;10.52;;;7.10;;
60314;SDS011;46159;42.550;21.904;2023-09-07T09:14:35;11.38;;;7.70;;
60314;SDS011;46159;42.550;21.904;2023-09-07T09:17:01;12.55;;;7.10;;
60314;SDS011;46159;42.550;21.904;2023-09-07T09:19:31;10.30;;;7.10;;
60314;SDS011;46159;42.550;21.904;2023-09-07T09:21:57;13.13;;;7.03;;
60314;SDS011;46159;42.550;21.904;2023-09-07T09:24:23;10.70;;;7.43;;
60314;SDS011;46159;42.550;21.904;2023-09-07T09:26:50;13.60;;;8.45;;
60314;SDS011;46159;42.550;21.904;2023-09-07T09:29:16;11.25;;;7.75;;
60314;SDS011;46159;42.550;21.904;2023-09-07T09:31:43;12.82;;;7.90;;
60314;SDS011;46159;42.550;21.904;2023-09-07T09:34:09;11.20;;;7.80;;
60314;SDS011;46159;42.550;21.904;2023-09-07T09:36:35;11.95;;;7.95;;
60314;SDS011;46159;42.550;21.904;2023-09-07T09:39:02;11.07;;;7.13;;
60314;SDS011;46159;42.550;21.904;2023-09-07T09:41:33;10.63;;;7.32;;
60314;SDS011;46159;42.550;21.904;2023-09-07T09:43:59;10.25;;;7.53;;
60314;SDS011;46159;42.550;21.904;2023-09-07T09:46:25;14.25;;;7.45;;
60314;SDS011;46159;42.550;21.904;2023-09-07T09:48:52;11.45;;;7.10;;
60314;SDS011;46159;42.550;21.904;2023-09-07T09:51:19;11.23;;;7.35;;
60314;SDS011;46159;42.550;21.904;2023-09-07T09:53:46;9.95;;;7.07;;
60314;SDS011;46159;42.550;21.904;2023-09-07T09:56:14;10.13;;;6.15;;
60314;SDS011;46159;42.550;21.904;2023-09-07T09:58:42;11.05;;;6.75;;
60314;SDS011;46159;42.550;21.904;2023-09-07T10:01:08;9.95;;;6.88;;
60314;SDS011;46159;42.550;21.904;2023-09-07T10:03:37;10.48;;;6.80;;
60314;SDS011;46159;42.550;21.904;2023-09-07T10:08:36;13.32;;;6.10;;
60314;SDS011;46159;42.550;21.904;2023-09-07T10:11:09;11.57;;;6.47;;
60314;SDS011;46159;42.550;21.904;2023-09-07T10:13:35;11.05;;;6.38;;
60314;SDS011;46159;42.550;21.904;2023-09-07T10:16:04;9.75;;;6.38;;
60314;SDS011;46159;42.550;21.904;2023-09-07T10:18:35;12.80;;;7.65;;
60314;SDS011;46159;42.550;21.904;2023-09-07T10:21:01;10.13;;;6.05;;
60314;SDS011;46159;42.550;21.904;2023-09-07T10:23:35;9.77;;;5.20;;
60314;SDS011;46159;42.550;21.904;2023-09-07T10:26:02;8.75;;;5.47;;
60314;SDS011;46159;42.550;21.904;2023-09-07T10:28:32;10.07;;;5.88;;
60314;SDS011;46159;42.550;21.904;2023-09-07T10:31:05;10.40;;;6.20;;
60314;SDS011;46159;42.550;21.904;2023-09-07T10:33:32;11.25;;;6.47;;
60314;SDS011;46159;42.550;21.904;2023-09-07T10:35:58;9.65;;;5.50;;
60314;SDS011;46159;42.550;21.904;2023-09-07T10:38:25;10.30;;;5.97;;
60314;SDS011;46159;42.550;21.904;2023-09-07T10:40:54;11.75;;;6.18;;
60314;SDS011;46159;42.550;21.904;2023-09-07T10:43:30;8.23;;;5.40;;
60314;SDS011;46159;42.550;21.904;2023-09-07T10:45:57;11.30;;;6.15;;
60314;SDS011;46159;42.550;21.904;2023-09-07T10:48:24;9.65;;;6.40;;
60314;SDS011;46159;42.550;21.904;2023-09-07T10:50:50;12.48;;;5.68;;
60314;SDS011;46159;42.550;21.904;2023-09-07T10:53:27;8.75;;;6.22;;
60314;SDS011;46159;42.550;21.904;2023-09-07T10:55:53;10.02;;;6.50;;
60314;SDS011;46159;42.550;21.904;2023-09-07T10:58:27;11.02;;;5.80;;
60314;SDS011;46159;42.550;21.904;2023-09-07T11:00:54;10.40;;;5.63;;
60314;SDS011;46159;42.550;21.904;2023-09-07T11:03:20;9.65;;;5.78;;
60314;SDS011;46159;42.550;21.904;2023-09-07T11:05:46;9.05;;;5.40;;
60314;SDS011;46159;42.550;21.904;2023-09-07T11:08:13;11.60;;;5.75;;
60314;SDS011;46159;42.550;21.904;2023-09-07T11:10:39;8.90;;;5.25;;
60314;SDS011;46159;42.550;21.904;2023-09-07T11:13:05;9.88;;;5.43;;
60314;SDS011;46159;42.550;21.904;2023-09-07T11:15:32;10.90;;;5.30;;
60314;SDS011;46159;42.550;21.904;2023-09-07T11:18:07;12.65;;;5.53;;
60314;SDS011;46159;42.550;21.904;2023-09-07T11:20:37;10.13;;;5.03;;
60314;SDS011;46159;42.550;21.904;2023-09-07T11:23:06;9.57;;;5.43;;
60314;SDS011;46159;42.550;21.904;2023-09-07T11:25:36;10.07;;;4.90;;
60314;SDS011;46159;42.550;21.904;2023-09-07T11:28:03;11.02;;;5.63;;
60314;SDS011;46159;42.550;21.904;2023-09-07T11:30:29;7.95;;;4.97;;
60314;SDS011;46159;42.550;21.904;2023-09-07T11:33:02;11.10;;;5.50;;
60314;SDS011;46159;42.550;21.904;2023-09-07T11:35:30;10.15;;;5.15;;
60314;SDS011;46159;42.550;21.904;2023-09-07T11:37:56;10.68;;;5.53;;
60314;SDS011;46159;42.550;21.904;2023-09-07T11:40:22;9.25;;;5.07;;
60314;SDS011;46159;42.550;21.904;2023-09-07T11:42:48;10.05;;;5.20;;
60314;SDS011;46159;42.550;21.904;2023-09-07T11:45:14;10.18;;;4.90;;
60314;SDS011;46159;42.550;21.904;2023-09-07T11:47:40;10.50;;;5.07;;
60314;SDS011;46159;42.550;21.904;2023-09-07T11:50:07;8.45;;;4.68;;
60314;SDS011;46159;42.550;21.904;2023-09-07T11:52:33;7.10;;;4.13;;
60314;SDS011;46159;42.550;21.904;2023-09-07T11:54:59;10.45;;;4.80;;
60314;SDS011;46159;42.550;21.904;2023-09-07T11:57:27;10.10;;;5.00;;
60314;SDS011;46159;42.550;21.904;2023-09-07T11:59:53;11.18;;;5.13;;
60314;SDS011;46159;42.550;21.904;2023-09-07T12:02:19;9.32;;;5.13;;
60314;SDS011;46159;42.550;21.904;2023-09-07T12:04:46;8.43;;;4.70;;
60314;SDS011;46159;42.550;21.904;2023-09-07T12:07:13;9.95;;;5.18;;
60314;SDS011;46159;42.550;21.904;2023-09-07T12:09:39;11.27;;;5.20;;
60314;SDS011;46159;42.550;21.904;2023-09-07T12:12:05;9.48;;;4.90;;
60314;SDS011;46159;42.550;21.904;2023-09-07T12:14:31;9.77;;;5.05;;
60314;SDS011;46159;42.550;21.904;2023-09-07T12:16:57;13.48;;;4.95;;
60314;SDS011;46159;42.550;21.904;2023-09-07T12:19:24;9.38;;;4.68;;
60314;SDS011;46159;42.550;21.904;2023-09-07T12:21:52;11.00;;;5.43;;
60314;SDS011;46159;42.550;21.904;2023-09-07T12:24:18;8.48;;;4.30;;
60314;SDS011;46159;42.550;21.904;2023-09-07T12:26:44;11.40;;;6.07;;
60314;SDS011;46159;42.550;21.904;2023-09-07T12:29:10;10.65;;;4.97;;
60314;SDS011;46159;42.550;21.904;2023-09-07T12:31:36;9.85;;;4.88;;
60314;SDS011;46159;42.550;21.904;2023-09-07T12:34:02;9.10;;;4.57;;
60314;SDS011;46159;42.550;21.904;2023-09-07T12:36:30;10.25;;;4.38;;
60314;SDS011;46159;42.550;21.904;2023-09-07T12:38:56;9.00;;;4.95;;
60314;SDS011;46159;42.550;21.904;2023-09-07T12:41:29;12.77;;;4.82;;
60314;SDS011;46159;42.550;21.904;2023-09-07T12:44:00;8.52;;;4.47;;
60314;SDS011;46159;42.550;21.904;2023-09-07T12:46:26;8.18;;;4.43;;
60314;SDS011;46159;42.550;21.904;2023-09-07T12:48:52;10.05;;;4.75;;
60314;SDS011;46159;42.550;21.904;2023-09-07T12:51:18;8.43;;;5.57;;
60314;SDS011;46159;42.550;21.904;2023-09-07T12:53:44;9.00;;;4.32;;
60314;SDS011;46159;42.550;21.904;2023-09-07T12:56:10;10.57;;;5.07;;
60314;SDS011;46159;42.550;21.904;2023-09-07T12:58:36;11.00;;;5.00;;
60314;SDS011;46159;42.550;21.904;2023-09-07T13:01:03;9.98;;;5.43;;
60314;SDS011;46159;42.550;21.904;2023-09-07T13:03:29;7.68;;;4.38;;
60314;SDS011;46159;42.550;21.904;2023-09-07T13:05:55;9.57;;;4.90;;
60314;SDS011;46159;42.550;21.904;2023-09-07T13:08:21;9.25;;;4.93;;
60314;SDS011;46159;42.550;21.904;2023-09-07T13:10:47;10.85;;;5.32;;
60314;SDS011;46159;42.550;21.904;2023-09-07T13:13:13;9.35;;;4.25;;
60314;SDS011;46159;42.550;21.904;2023-09-07T13:15:39;9.32;;;4.28;;
60314;SDS011;46159;42.550;21.904;2023-09-07T13:18:05;8.07;;;3.53;;
60314;SDS011;46159;42.550;21.904;2023-09-07T13:20:31;9.93;;;4.97;;
60314;SDS011;46159;42.550;21.904;2023-09-07T13:22:57;8.35;;;5.00;;
60314;SDS011;46159;42.550;21.904;2023-09-07T13:25:23;9.93;;;4.80;;
60314;SDS011;46159;42.550;21.904;2023-09-07T13:27:50;10.35;;;5.55;;
60314;SDS011;46159;42.550;21.904;2023-09-07T13:30:16;11.05;;;4.32;;
60314;SDS011;46159;42.550;21.904;2023-09-07T13:32:42;8.50;;;4.65;;
60314;SDS011;46159;42.550;21.904;2023-09-07T13:35:11;9.70;;;5.30;;
60314;SDS011;46159;42.550;21.904;2023-09-07T13:37:37;10.57;;;4.82;;
60314;SDS011;46159;42.550;21.904;2023-09-07T13:40:03;12.15;;;5.10;;
60314;SDS011;46159;42.550;21.904;2023-09-07T13:42:29;9.52;;;5.05;;
60314;SDS011;46159;42.550;21.904;2023-09-07T13:44:55;11.77;;;5.53;;
60314;SDS011;46159;42.550;21.904;2023-09-07T13:47:21;9.68;;;4.90;;
60314;SDS011;46159;42.550;21.904;2023-09-07T13:49:48;11.63;;;4.65;;
60314;SDS011;46159;42.550;21.904;2023-09-07T13:52:14;9.25;;;5.22;;
60314;SDS011;46159;42.550;21.904;2023-09-07T13:54:40;6.95;;;4.63;;
60314;SDS011;46159;42.550;21.904;2023-09-07T13:57:06;9.60;;;4.57;;
60314;SDS011;46159;42.550;21.904;2023-09-07T13:59:33;8.77;;;4.50;;
60314;SDS011;46159;42.550;21.904;2023-09-07T14:02:02;7.43;;;4.63;;
60314;SDS011;46159;42.550;21.904;2023-09-07T14:04:28;11.05;;;4.50;;
60314;SDS011;46159;42.550;21.904;2023-09-07T14:06:56;10.70;;;4.63;;
60314;SDS011;46159;42.550;21.904;2023-09-07T14:09:22;9.00;;;4.50;;
60314;SDS011;46159;42.550;21.904;2023-09-07T14:11:48;9.15;;;4.38;;
60314;SDS011;46159;42.550;21.904;2023-09-07T14:14:14;7.38;;;4.18;;
60314;SDS011;46159;42.550;21.904;2023-09-07T14:16:41;9.43;;;4.10;;
60314;SDS011;46159;42.550;21.904;2023-09-07T14:19:07;8.85;;;4.03;;
60314;SDS011;46159;42.550;21.904;2023-09-07T14:21:35;8.40;;;3.95;;
60314;SDS011;46159;42.550;21.904;2023-09-07T14:24:01;8.52;;;4.20;;